Time;durP1;ratioP1;P1;durP2;ratioP2;P2;SDS_P1;SDS_P2;PMS_P1;PMS_P2;Temp;Humidity;BMP_temperature;BMP_pressure;BME280_temperature;BME280_humidity;BME280_pressure;Samples;Min_cycle;Max_cycle;Signal;HPM_P1;HPM_P2
2022/09/02 00:01:36;;;;;;;11.28;8.93;;;24.10;79.70;;;;;;1793371;80;21086;-66
2022/09/02 00:04:08;;;;;;;16.15;9.78;;;24.10;79.90;;;;;;1793405;80;21053;-66
2022/09/02 00:06:38;;;;;;;14.38;9.28;;;24.10;80.00;;;;;;1792845;79;21987;-66
2022/09/02 00:09:09;;;;;;;14.78;9.80;;;24.10;79.70;;;;;;1793375;80;21136;-66
2022/09/02 00:11:39;;;;;;;15.25;9.00;;;24.10;79.60;;;;;;1793406;79;21543;-66
2022/09/02 00:14:11;;;;;;;13.13;10.13;;;24.00;79.50;;;;;;1793624;80;21155;-66
2022/09/02 00:16:50;;;;;;;13.72;10.38;;;23.90;79.60;;;;;;1793415;79;21618;-66
2022/09/02 00:19:12;;;;;;;13.80;9.15;;;23.80;79.70;;;;;;1794879;78;21061;-66
2022/09/02 00:21:41;;;;;;;12.65;8.63;;;23.90;80.80;;;;;;1793455;79;21065;-66
2022/09/02 00:24:10;;;;;;;11.40;9.10;;;23.80;80.20;;;;;;1793338;79;21085;-66
2022/09/02 00:26:39;;;;;;;14.13;9.88;;;23.80;80.30;;;;;;1793463;80;21160;-66
2022/09/02 00:29:09;;;;;;;12.05;9.13;;;23.90;80.20;;;;;;1793350;79;21170;-66
2022/09/02 00:31:38;;;;;;;14.93;9.55;;;23.80;80.10;;;;;;1793465;80;21089;-66
2022/09/02 00:34:07;;;;;;;10.80;9.10;;;23.80;80.30;;;;;;1793457;80;21104;-66
2022/09/02 00:36:37;;;;;;;14.47;9.50;;;23.80;80.50;;;;;;1793465;79;21021;-66
2022/09/02 00:39:17;;;;;;;13.78;9.43;;;23.80;80.30;;;;;;1805018;79;21162;-66
2022/09/02 00:41:47;;;;;;;13.03;9.53;;;23.70;80.30;;;;;;1853865;72;21611;-66
2022/09/02 00:44:19;;;;;;;13.20;9.28;;;23.60;80.60;;;;;;1862728;76;21041;-66
2022/09/02 00:46:49;;;;;;;9.35;8.23;;;23.50;80.70;;;;;;1862563;76;21467;-66
2022/09/02 00:49:30;;;;;;;14.05;10.45;;;23.40;81.10;;;;;;1862713;76;21136;-66
2022/09/02 00:52:01;;;;;;;14.30;9.50;;;23.40;81.20;;;;;;1862747;77;21099;-66
2022/09/02 00:54:33;;;;;;;17.73;9.78;;;23.40;81.30;;;;;;1862237;77;21459;-66
2022/09/02 00:57:05;;;;;;;15.90;9.05;;;23.40;81.30;;;;;;1862744;76;21483;-66
2022/09/02 01:00:02;;;;;;;16.67;11.25;;;23.40;81.40;;;;;;1862612;76;21116;-66
2022/09/02 01:02:33;;;;;;;13.15;10.40;;;23.50;81.30;;;;;;1862653;76;21030;-67
2022/09/02 01:05:03;;;;;;;10.13;8.53;;;23.50;81.20;;;;;;1862698;76;21110;-67
2022/09/02 01:07:35;;;;;;;12.50;9.98;;;23.50;81.30;;;;;;1862652;77;21049;-67
2022/09/02 01:10:13;;;;;;;14.53;10.40;;;23.50;81.40;;;;;;1862712;76;21087;-67
2022/09/02 01:12:42;;;;;;;13.60;10.05;;;23.50;81.40;;;;;;1862716;77;21119;-67
2022/09/02 01:15:13;;;;;;;12.07;9.33;;;23.50;81.30;;;;;;1862734;77;21487;-67
2022/09/02 01:17:48;;;;;;;12.65;9.53;;;23.50;81.40;;;;;;1862592;76;21037;-67
2022/09/02 01:20:21;;;;;;;10.90;8.70;;;23.50;81.40;;;;;;1862427;76;21085;-67
2022/09/02 01:22:52;;;;;;;11.15;9.00;;;23.50;81.40;;;;;;1862575;77;21483;-65
2022/09/02 01:25:23;;;;;;;13.80;9.90;;;23.40;81.50;;;;;;1862700;76;21029;-65
2022/09/02 01:27:53;;;;;;;14.18;9.95;;;23.40;81.50;;;;;;1862596;77;21053;-65
2022/09/02 01:30:25;;;;;;;15.40;10.18;;;23.40;81.10;;;;;;1862588;76;21029;-65
2022/09/02 01:32:54;;;;;;;16.25;11.00;;;23.30;80.90;;;;;;1881041;76;21037;-65
2022/09/02 01:35:24;;;;;;;13.00;10.75;;;23.20;80.80;;;;;;1862707;76;21029;-65
2022/09/02 01:37:55;;;;;;;12.90;10.20;;;23.10;80.90;;;;;;1862542;76;21033;-65
2022/09/02 01:40:27;;;;;;;11.30;10.10;;;23.10;81.50;;;;;;1862386;77;21041;-65
2022/09/02 01:43:06;;;;;;;16.07;10.75;;;23.00;81.70;;;;;;1857251;77;21151;-66
2022/09/02 01:45:37;;;;;;;18.80;9.35;;;23.00;81.80;;;;;;1857258;77;21086;-65
2022/09/02 01:48:08;;;;;;;10.58;9.48;;;23.00;81.90;;;;;;1857319;77;21049;-66
2022/09/02 01:50:40;;;;;;;12.88;9.40;;;23.00;82.20;;;;;;1857270;77;21145;-65
2022/09/02 01:53:09;;;;;;;14.28;9.68;;;22.90;82.10;;;;;;1857283;77;21049;-65
2022/09/02 01:55:39;;;;;;;16.15;10.53;;;22.90;82.40;;;;;;1857190;77;21421;-65
2022/09/02 01:58:08;;;;;;;11.65;9.60;;;23.00;82.40;;;;;;1857416;77;21021;-65
2022/09/02 02:00:38;;;;;;;12.15;9.58;;;23.00;82.20;;;;;;1857329;77;21045;-65
2022/09/02 02:03:08;;;;;;;11.22;9.73;;;22.90;82.00;;;;;;1857350;77;21049;-66
2022/09/02 02:05:38;;;;;;;16.50;11.20;;;22.90;82.20;;;;;;1857342;77;21026;-66
2022/09/02 02:08:08;;;;;;;15.70;10.65;;;22.90;82.10;;;;;;1857319;77;21096;-66
2022/09/02 02:10:39;;;;;;;15.80;11.35;;;22.80;82.80;;;;;;1857325;77;21038;-65
2022/09/02 02:13:08;;;;;;;21.73;11.53;;;22.70;82.30;;;;;;1857232;77;21543;-65
2022/09/02 02:15:39;;;;;;;22.87;13.65;;;22.60;83.00;;;;;;1857404;77;21021;-66
2022/09/02 02:18:10;;;;;;;28.20;12.88;;;22.40;82.60;;;;;;1857266;76;21141;-66
2022/09/02 02:20:39;;;;;;;25.50;13.80;;;22.40;82.80;;;;;;1857220;77;21034;-65
2022/09/02 02:23:08;;;;;;;17.32;10.88;;;22.30;83.00;;;;;;1857258;77;21114;-65
2022/09/02 02:25:40;;;;;;;14.58;10.55;;;22.20;83.30;;;;;;1857321;77;21507;-65
2022/09/02 02:28:09;;;;;;;14.93;11.12;;;22.30;83.70;;;;;;1857330;77;21041;-65
2022/09/02 02:30:39;;;;;;;15.68;10.72;;;22.30;83.60;;;;;;1857419;77;21054;-65
2022/09/02 02:33:09;;;;;;;18.02;10.38;;;22.30;83.40;;;;;;1828462;77;21091;-66
2022/09/02 02:35:38;;;;;;;21.57;13.88;;;22.40;83.70;;;;;;1857457;77;21050;-65
2022/09/02 02:38:09;;;;;;;25.52;13.05;;;22.40;83.80;;;;;;1857476;77;21111;-66
2022/09/02 02:40:38;;;;;;;17.80;11.88;;;22.40;83.70;;;;;;1857244;77;21115;-66
2022/09/02 02:43:08;;;;;;;21.57;11.73;;;22.50;83.90;;;;;;1857176;77;21042;-66
2022/09/02 02:45:39;;;;;;;23.60;12.05;;;22.50;83.90;;;;;;1857213;77;21151;-65
2022/09/02 02:48:08;;;;;;;18.90;13.05;;;22.60;84.00;;;;;;1857258;77;21030;-65
2022/09/02 02:50:37;;;;;;;13.78;10.98;;;22.60;83.90;;;;;;1857321;77;21124;-66
2022/09/02 02:53:11;;;;;;;15.75;11.38;;;22.60;83.70;;;;;;1857271;76;21038;-65
2022/09/02 02:55:43;;;;;;;14.40;10.72;;;22.60;83.80;;;;;;1895372;73;21129;-65
2022/09/02 02:58:14;;;;;;;13.03;10.15;;;22.60;83.90;;;;;;1868427;77;21033;-66
2022/09/02 03:00:45;;;;;;;16.05;11.18;;;22.60;84.10;;;;;;1868422;77;21108;-65
2022/09/02 03:03:18;;;;;;;17.65;9.80;;;22.60;84.00;;;;;;1868397;77;21056;-65
2022/09/02 03:05:49;;;;;;;15.10;11.03;;;22.60;83.90;;;;;;1868401;77;21053;-66
2022/09/02 03:08:19;;;;;;;69.65;16.37;;;22.60;83.90;;;;;;1868528;77;21045;-66
2022/09/02 03:10:53;;;;;;;19.37;12.70;;;22.60;83.60;;;;;;1868381;77;21110;-65
2022/09/02 03:13:23;;;;;;;15.08;10.18;;;22.50;84.20;;;;;;1868467;77;21041;-66
2022/09/02 03:15:53;;;;;;;17.20;11.15;;;22.50;83.80;;;;;;1868451;77;21025;-66
2022/09/02 03:18:23;;;;;;;13.50;10.43;;;22.50;83.80;;;;;;1868490;77;21049;-66
2022/09/02 03:20:52;;;;;;;13.25;9.68;;;22.50;83.70;;;;;;1868405;77;21021;-66
2022/09/02 03:23:22;;;;;;;10.63;8.45;;;22.40;83.70;;;;;;1868415;77;21104;-66
2022/09/02 03:25:52;;;;;;;11.33;9.20;;;22.30;84.00;;;;;;1868364;77;21095;-66
2022/09/02 03:28:34;;;;;;;9.25;8.35;;;22.40;84.40;;;;;;1867800;77;21085;-66
2022/09/02 03:31:04;;;;;;;12.58;9.13;;;22.50;84.40;;;;;;1868362;77;21128;-65
2022/09/02 03:33:34;;;;;;;10.55;8.65;;;22.50;84.50;;;;;;1868512;77;21037;-65
2022/09/02 03:36:04;;;;;;;11.70;8.53;;;22.50;84.30;;;;;;1868414;77;21048;-65
2022/09/02 03:38:36;;;;;;;10.13;8.73;;;22.60;84.50;;;;;;1868353;77;21065;-65
2022/09/02 03:41:05;;;;;;;12.03;8.58;;;22.60;84.60;;;;;;1868392;77;21045;-65
2022/09/02 03:43:35;;;;;;;11.68;8.28;;;22.70;84.50;;;;;;1868407;77;21021;-65
2022/09/02 03:46:04;;;;;;;12.93;8.48;;;22.70;84.40;;;;;;1868266;77;21060;-65
2022/09/02 03:48:34;;;;;;;14.50;9.18;;;22.70;84.40;;;;;;1868286;76;21095;-65
2022/09/02 03:51:04;;;;;;;13.30;7.97;;;22.80;84.50;;;;;;1868407;77;21045;-66
2022/09/02 03:53:33;;;;;;;16.45;8.65;;;22.80;84.30;;;;;;1868338;77;21021;-65
2022/09/02 03:56:10;;;;;;;14.13;8.25;;;22.80;84.10;;;;;;1861774;76;21069;-66
2022/09/02 03:58:40;;;;;;;13.30;8.95;;;22.80;84.00;;;;;;1859753;77;21045;-66
2022/09/02 04:01:11;;;;;;;16.80;9.50;;;22.80;84.00;;;;;;1859826;76;21041;-66
2022/09/02 04:03:41;;;;;;;10.48;8.40;;;22.80;83.80;;;;;;1859907;77;21010;-66
2022/09/02 04:06:12;;;;;;;9.48;8.48;;;22.80;83.80;;;;;;1859779;77;21069;-66
2022/09/02 04:08:48;;;;;;;12.35;8.33;;;22.90;84.00;;;;;;1859813;77;21018;-65
2022/09/02 04:11:16;;;;;;;10.82;7.20;;;22.90;84.00;;;;;;1858308;77;21069;-66
2022/09/02 04:13:47;;;;;;;9.23;7.60;;;22.90;83.80;;;;;;1859831;77;21053;-65
2022/09/02 04:16:24;;;;;;;11.48;7.30;;;23.00;84.00;;;;;;1859819;77;21073;-66
2022/09/02 04:18:52;;;;;;;9.95;7.85;;;23.00;83.90;;;;;;1859657;77;21062;-66
2022/09/02 04:21:23;;;;;;;10.53;8.20;;;23.20;83.60;;;;;;1859789;76;21059;-66
2022/09/02 04:23:52;;;;;;;8.75;7.47;;;23.20;83.20;;;;;;1859718;77;21107;-66
2022/09/02 04:26:22;;;;;;;8.10;6.70;;;23.30;83.10;;;;;;1859825;76;21045;-66
2022/09/02 04:28:56;;;;;;;9.58;7.17;;;23.30;83.10;;;;;;1859387;77;21113;-66
2022/09/02 04:31:29;;;;;;;13.83;7.55;;;23.30;83.00;;;;;;1859754;77;21013;-65
2022/09/02 04:33:59;;;;;;;10.08;7.40;;;23.40;82.40;;;;;;1859851;77;21021;-65
2022/09/02 04:36:29;;;;;;;9.60;7.58;;;23.40;82.10;;;;;;1859941;77;21041;-66
2022/09/02 04:38:59;;;;;;;8.50;6.37;;;23.40;82.00;;;;;;1859894;77;21087;-66
2022/09/02 04:41:30;;;;;;;7.75;6.78;;;23.40;81.70;;;;;;1859594;77;21041;-66
2022/09/02 04:44:01;;;;;;;11.80;6.80;;;23.40;82.10;;;;;;1859709;76;21105;-66
2022/09/02 04:46:33;;;;;;;9.33;6.80;;;23.40;81.90;;;;;;1859587;77;21174;-66
2022/09/02 04:49:04;;;;;;;8.25;7.17;;;23.40;81.80;;;;;;1859874;77;21005;-66
2022/09/02 04:51:33;;;;;;;7.55;5.90;;;23.50;81.10;;;;;;1859819;77;21065;-66
2022/09/02 04:54:04;;;;;;;10.03;6.25;;;23.40;80.90;;;;;;1860010;77;21066;-66
2022/09/02 04:56:34;;;;;;;10.53;6.28;;;23.40;80.70;;;;;;1859926;76;21131;-66
2022/09/02 04:59:04;;;;;;;6.40;5.55;;;23.30;80.70;;;;;;1859906;77;21044;-66
2022/09/02 05:01:35;;;;;;;8.50;6.15;;;23.30;80.90;;;;;;1859761;77;21519;-66
2022/09/02 05:04:08;;;;;;;7.62;6.20;;;23.30;80.60;;;;;;1859131;77;21152;-66
2022/09/02 05:06:48;;;;;;;7.97;6.60;;;23.20;80.60;;;;;;1859503;76;21122;-66
2022/09/02 05:09:20;;;;;;;11.15;6.78;;;23.30;80.60;;;;;;1883545;73;21126;-66
2022/09/02 05:12:03;;;;;;;7.08;6.35;;;23.30;80.50;;;;;;1888291;75;21033;-65
2022/09/02 05:14:26;;;;;;;9.05;6.45;;;23.30;80.50;;;;;;1887089;76;21439;-66
2022/09/02 05:16:55;;;;;;;7.50;6.10;;;23.30;79.90;;;;;;1888725;76;21111;-65
2022/09/02 05:19:25;;;;;;;8.13;6.08;;;23.40;80.00;;;;;;1888664;76;21110;-65
2022/09/02 05:21:56;;;;;;;9.78;6.85;;;23.40;79.80;;;;;;1888664;76;21029;-65
2022/09/02 05:24:28;;;;;;;10.78;6.95;;;23.40;79.70;;;;;;1888137;75;21126;-65
2022/09/02 05:26:59;;;;;;;8.63;6.85;;;23.40;79.90;;;;;;1888633;75;21056;-65
2022/09/02 05:29:28;;;;;;;7.08;6.37;;;23.50;79.80;;;;;;1888780;76;21029;-65
2022/09/02 05:31:58;;;;;;;12.80;8.45;;;23.50;79.70;;;;;;1888696;76;21452;-65
2022/09/02 05:34:27;;;;;;;8.20;6.12;;;23.50;79.70;;;;;;1888665;76;21021;-65
2022/09/02 05:36:58;;;;;;;11.83;7.03;;;23.60;79.60;;;;;;1888645;76;21110;-65
2022/09/02 05:39:30;;;;;;;9.43;7.08;;;23.60;79.50;;;;;;1888624;75;21033;-65
2022/09/02 05:41:59;;;;;;;10.28;7.45;;;23.70;79.20;;;;;;1888530;76;21099;-65
2022/09/02 05:44:30;;;;;;;9.13;6.72;;;23.80;79.10;;;;;;1888742;76;21037;-65
2022/09/02 05:46:59;;;;;;;13.05;7.92;;;23.90;78.60;;;;;;1888687;76;21499;-66
2022/09/02 05:49:29;;;;;;;11.78;6.97;;;23.90;78.50;;;;;;1888534;76;21021;-65
2022/09/02 05:52:00;;;;;;;12.43;7.45;;;23.90;78.40;;;;;;1888060;76;21028;-65
2022/09/02 05:54:37;;;;;;;9.15;6.95;;;23.90;78.30;;;;;;1888318;75;21009;-65
2022/09/02 05:57:10;;;;;;;10.75;6.72;;;24.00;78.30;;;;;;1888412;75;21147;-65
2022/09/02 05:59:43;;;;;;;9.97;7.47;;;24.10;78.20;;;;;;1888906;75;21111;-66
2022/09/02 06:02:16;;;;;;;8.35;7.42;;;24.10;77.90;;;;;;1888370;75;21118;-66
2022/09/02 06:04:48;;;;;;;11.12;8.10;;;24.10;78.00;;;;;;1888711;76;21065;-65
2022/09/02 06:07:20;;;;;;;12.20;7.65;;;24.20;78.10;;;;;;1888685;76;21029;-66
2022/09/02 06:09:50;;;;;;;8.90;7.12;;;24.30;78.00;;;;;;1888801;76;21061;-66
2022/09/02 06:12:20;;;;;;;9.58;6.67;;;24.30;77.70;;;;;;1888725;76;21098;-65
2022/09/02 06:14:50;;;;;;;11.25;6.83;;;24.40;77.30;;;;;;1888833;76;21106;-65
2022/09/02 06:17:21;;;;;;;10.70;7.28;;;24.50;77.10;;;;;;1888798;76;21049;-66
2022/09/02 06:19:52;;;;;;;9.05;6.85;;;24.50;77.00;;;;;;1888688;75;21028;-66
2022/09/02 06:22:23;;;;;;;12.73;7.30;;;24.50;76.90;;;;;;1888455;76;21095;-66
2022/09/02 06:24:52;;;;;;;8.10;6.78;;;24.50;76.60;;;;;;1888712;76;20993;-66
2022/09/02 06:27:23;;;;;;;9.68;7.03;;;24.60;76.60;;;;;;1888335;75;21118;-66
2022/09/02 06:29:54;;;;;;;8.58;6.62;;;24.60;76.20;;;;;;1888960;76;21045;-65
2022/09/02 06:32:25;;;;;;;11.93;7.17;;;24.60;76.40;;;;;;1888778;75;21036;-66
2022/09/02 06:34:56;;;;;;;19.67;11.75;;;24.60;76.00;;;;;;1887990;75;21036;-66
2022/09/02 06:37:26;;;;;;;9.63;7.60;;;24.60;76.20;;;;;;1889026;76;21111;-66
2022/09/02 06:39:56;;;;;;;11.03;7.17;;;24.70;75.70;;;;;;1888854;76;21017;-66
2022/09/02 06:42:26;;;;;;;10.55;6.72;;;24.80;76.20;;;;;;1888778;76;21029;-66
2022/09/02 06:45:06;;;;;;;9.05;6.30;;;24.80;75.80;;;;;;1887647;75;21041;-66
2022/09/02 06:47:36;;;;;;;8.40;6.85;;;24.90;75.30;;;;;;1888681;76;21040;-66
2022/09/02 06:50:06;;;;;;;10.55;7.25;;;24.90;75.50;;;;;;1888888;76;21005;-65
2022/09/02 06:52:36;;;;;;;15.08;8.05;;;25.00;75.20;;;;;;1888759;76;21037;-66
2022/09/02 06:55:06;;;;;;;9.55;6.80;;;25.00;75.10;;;;;;1888920;76;21029;-66
2022/09/02 06:57:36;;;;;;;8.93;6.33;;;25.00;75.10;;;;;;1888684;76;21091;-66
2022/09/02 07:00:09;;;;;;;9.88;7.00;;;25.00;74.80;;;;;;1888377;76;21041;-66
2022/09/02 07:02:39;;;;;;;8.03;7.20;;;25.10;75.00;;;;;;1888759;76;21095;-66
2022/09/02 07:05:13;;;;;;;9.63;6.53;;;25.10;75.50;;;;;;1888588;75;21028;-66
2022/09/02 07:07:45;;;;;;;11.40;6.72;;;25.20;74.90;;;;;;1888827;76;21038;-66
2022/09/02 07:10:16;;;;;;;10.40;7.35;;;25.20;74.70;;;;;;1875898;76;21069;-65
2022/09/02 07:12:47;;;;;;;10.60;6.67;;;25.30;74.60;;;;;;1872279;77;21005;-66
2022/09/02 07:15:18;;;;;;;7.55;6.20;;;25.40;74.60;;;;;;1872783;77;21041;-66
2022/09/02 07:17:48;;;;;;;9.88;6.42;;;25.50;74.20;;;;;;1872698;77;21045;-66
2022/09/02 07:20:19;;;;;;;9.93;6.65;;;25.60;74.00;;;;;;1871578;76;21061;-66
2022/09/02 07:22:53;;;;;;;8.08;5.70;;;25.60;73.70;;;;;;1872126;76;21088;-66
2022/09/02 07:25:23;;;;;;;10.63;7.58;;;25.70;73.60;;;;;;1872910;77;21155;-66
2022/09/02 07:27:53;;;;;;;14.80;6.87;;;25.70;73.10;;;;;;1872631;76;21138;-66
2022/09/02 07:30:23;;;;;;;7.80;6.50;;;25.80;73.00;;;;;;1872664;76;21041;-66
2022/09/02 07:32:55;;;;;;;12.10;6.62;;;25.70;72.80;;;;;;1870485;77;21132;-65
2022/09/02 07:35:25;;;;;;;9.10;6.60;;;25.70;73.00;;;;;;1872637;77;21104;-65
2022/09/02 07:37:54;;;;;;;15.13;9.18;;;25.70;72.90;;;;;;1872499;76;21033;-65
2022/09/02 07:40:24;;;;;;;15.28;7.42;;;25.80;73.10;;;;;;1872472;76;21026;-65
2022/09/02 07:42:54;;;;;;;9.35;6.65;;;25.80;72.90;;;;;;1872686;77;21119;-65
2022/09/02 07:45:23;;;;;;;8.25;6.10;;;25.90;73.00;;;;;;1872607;76;21053;-65
2022/09/02 07:47:53;;;;;;;10.90;7.22;;;26.00;73.00;;;;;;1872490;76;21073;-66
2022/09/02 07:50:25;;;;;;;11.78;7.15;;;26.10;72.70;;;;;;1872537;77;21088;-65
2022/09/02 07:52:59;;;;;;;12.65;7.03;;;26.10;72.30;;;;;;1872538;77;21054;-65
2022/09/02 07:55:30;;;;;;;11.75;6.78;;;26.20;72.30;;;;;;1872078;77;21072;-65
2022/09/02 07:57:59;;;;;;;19.25;6.90;;;26.30;72.00;;;;;;1872550;77;21095;-65
2022/09/02 08:00:28;;;;;;;9.78;7.22;;;26.40;71.80;;;;;;1872541;77;21440;-66
2022/09/02 08:02:59;;;;;;;9.48;6.53;;;26.50;71.80;;;;;;1872046;77;21111;-65
2022/09/02 08:05:31;;;;;;;12.05;6.15;;;26.50;71.60;;;;;;1872073;76;21040;-66
2022/09/02 08:08:00;;;;;;;8.75;6.00;;;26.70;71.40;;;;;;1872614;77;21167;-65
2022/09/02 08:10:31;;;;;;;10.80;7.70;;;26.70;70.50;;;;;;1882631;76;21053;-66
2022/09/02 08:13:01;;;;;;;10.38;7.15;;;26.70;70.60;;;;;;1888145;76;21013;-66
2022/09/02 08:15:31;;;;;;;8.93;6.92;;;26.70;70.70;;;;;;1888125;76;21029;-66
2022/09/02 08:18:01;;;;;;;12.88;6.65;;;26.80;70.60;;;;;;1888048;76;21021;-65
2022/09/02 08:20:30;;;;;;;8.48;5.92;;;26.80;70.40;;;;;;1888015;76;21025;-66
2022/09/02 08:22:59;;;;;;;11.35;6.97;;;26.90;70.40;;;;;;1888023;76;21103;-66
2022/09/02 08:25:28;;;;;;;6.92;5.22;;;27.00;69.80;;;;;;1888303;76;21009;-66
2022/09/02 08:27:58;;;;;;;9.95;6.20;;;27.00;69.80;;;;;;1888189;76;21025;-66
2022/09/02 08:30:27;;;;;;;9.23;5.87;;;27.10;69.90;;;;;;1888169;76;21448;-66
2022/09/02 08:32:57;;;;;;;7.55;6.62;;;27.20;69.40;;;;;;1887987;76;21021;-66
2022/09/02 08:35:26;;;;;;;12.05;8.73;;;27.30;68.90;;;;;;1887990;76;21028;-66
2022/09/02 08:37:57;;;;;;;15.32;6.17;;;27.30;68.40;;;;;;1887982;76;21005;-66
2022/09/02 08:40:37;;;;;;;7.10;5.90;;;27.30;68.50;;;;;;1887995;76;21029;-66
2022/09/02 08:43:24;;;;;;;9.68;5.90;;;27.30;67.60;;;;;;1888085;76;21093;-66
2022/09/02 08:45:55;;;;;;;7.62;6.17;;;27.20;67.10;;;;;;1887991;76;21052;-66
2022/09/02 08:48:39;;;;;;;7.60;5.83;;;27.10;67.30;;;;;;1888008;76;21057;-66
2022/09/02 08:51:20;;;;;;;7.60;5.78;;;27.20;67.30;;;;;;1888372;76;21049;-66
2022/09/02 08:53:52;;;;;;;8.30;6.12;;;27.30;67.70;;;;;;1880042;76;21127;-66
2022/09/02 08:56:22;;;;;;;7.65;5.75;;;27.40;67.60;;;;;;1888159;76;21017;-66
2022/09/02 08:58:52;;;;;;;8.13;5.55;;;27.50;67.70;;;;;;1888028;76;21009;-66
2022/09/02 09:01:46;;;;;;;7.05;5.97;;;27.60;66.90;;;;;;1888092;76;21076;-66
2022/09/02 09:04:34;;;;;;;11.95;7.75;;;27.60;66.60;;;;;;1888363;76;21049;-66
2022/09/02 09:07:15;;;;;;;7.12;6.12;;;27.60;66.50;;;;;;1887924;75;21057;-66
2022/09/02 09:09:53;;;;;;;9.60;5.75;;;27.70;66.10;;;;;;1889167;76;21088;-66
2022/09/02 09:12:42;;;;;;;9.30;5.22;;;27.80;65.40;;;;;;1897631;76;21111;-66
2022/09/02 09:15:26;;;;;;;6.72;5.03;;;27.90;64.50;;;;;;1897382;75;21041;-66
2022/09/02 09:17:58;;;;;;;8.48;5.45;;;27.90;64.60;;;;;;1888830;76;21052;-66
2022/09/02 09:20:30;;;;;;;9.65;5.47;;;28.00;63.80;;;;;;1896289;76;21025;-66
2022/09/02 09:23:08;;;;;;;6.83;5.20;;;28.00;63.80;;;;;;1897510;76;21048;-66
2022/09/02 09:25:38;;;;;;;6.22;5.00;;;28.00;63.30;;;;;;1895958;75;21115;-66
2022/09/02 09:28:08;;;;;;;5.60;4.65;;;28.00;62.80;;;;;;1897467;75;21001;-66
2022/09/02 09:30:38;;;;;;;8.60;5.05;;;28.00;63.10;;;;;;1897472;76;21041;-66
2022/09/02 09:33:08;;;;;;;6.55;4.78;;;28.10;62.30;;;;;;1897722;76;20997;-66
2022/09/02 09:35:57;;;;;;;6.75;5.83;;;28.20;62.00;;;;;;1897414;76;21040;-66
2022/09/02 09:38:34;;;;;;;8.08;5.58;;;28.20;61.40;;;;;;1897379;76;21025;-71
2022/09/02 09:41:19;;;;;;;8.35;5.40;;;28.30;61.90;;;;;;1897335;76;21033;-68
2022/09/02 09:43:47;;;;;;;;;;;28.30;61.40;;;;;;1881037;76;21212;-68
2022/09/02 09:46:22;;;;;;;6.00;5.33;;;28.40;59.50;;;;;;1896808;76;20191;-70
2022/09/02 09:48:51;;;;;;;6.12;5.50;;;28.40;60.80;;;;;;1896867;76;21107;-70
2022/09/02 09:51:21;;;;;;;5.75;4.75;;;28.50;61.60;;;;;;1896719;76;21060;-70
2022/09/02 09:53:50;;;;;;;6.40;5.05;;;28.60;61.60;;;;;;1896790;76;21096;-68
2022/09/02 09:56:28;;;;;;;5.53;4.58;;;28.80;61.20;;;;;;1896757;76;21088;-72
2022/09/02 09:58:59;;;;;;;8.63;4.87;;;28.90;60.60;;;;;;1913324;73;21161;-74
2022/09/02 10:01:37;;;;;;;8.25;5.20;;;28.90;59.50;;;;;;1901191;74;21106;-72
2022/09/02 10:04:13;;;;;;;9.25;6.25;;;28.90;59.00;;;;;;1953149;73;21061;-71
2022/09/02 10:06:47;;;;;;;10.75;6.20;;;28.90;58.60;;;;;;1951532;73;21151;-67
2022/09/02 10:09:26;;;;;;;6.75;5.95;;;28.90;58.60;;;;;;1954352;72;21424;-67
2022/09/02 10:12:06;;;;;;;6.40;5.00;;;28.90;59.00;;;;;;1954433;73;21093;-72
2022/09/02 10:14:41;;;;;;;6.80;5.70;;;29.00;59.30;;;;;;1954240;73;21123;-66
2022/09/02 10:17:45;;;;;;;8.85;5.40;;;29.00;58.30;;;;;;1954247;73;21421;-69
2022/09/02 10:20:26;;;;;;;6.42;4.85;;;29.10;58.50;;;;;;1954207;73;21050;-68
2022/09/02 10:23:08;;;;;;;6.60;5.67;;;29.10;58.20;;;;;;1895787;70;21070;-69
2022/09/02 10:25:59;;;;;;;5.22;4.72;;;29.10;58.20;;;;;;1968278;72;21059;-72
2022/09/02 10:28:45;;;;;;;6.85;5.20;;;29.10;57.60;;;;;;1966725;73;21540;-70
2022/09/02 10:31:23;;;;;;;10.90;8.53;;;29.10;57.30;;;;;;1968313;72;21117;-74
2022/09/02 10:34:04;;;;;;;9.00;6.85;;;29.10;56.70;;;;;;1968216;72;21067;-70
2022/09/02 10:36:53;;;;;;;10.45;5.08;;;29.10;56.70;;;;;;1968239;73;21008;-64
2022/09/02 10:39:40;;;;;;;9.03;4.62;;;29.20;56.60;;;;;;1968339;73;21040;-66
2022/09/02 10:42:11;;;;;;;5.20;3.92;;;29.30;57.00;;;;;;1968426;73;21470;-65
2022/09/02 10:44:46;;;;;;;10.88;5.60;;;29.30;56.00;;;;;;1959009;73;21602;-66
2022/09/02 10:47:20;;;;;;;8.40;5.05;;;29.30;55.40;;;;;;1967755;72;21474;-65
2022/09/02 10:50:08;;;;;;;5.25;4.22;;;29.40;55.40;;;;;;1962831;72;21539;-70
2022/09/02 10:52:58;;;;;;;8.70;4.20;;;29.50;55.30;;;;;;1968149;73;21110;-70
2022/09/02 10:55:49;;;;;;;12.93;7.65;;;29.50;55.10;;;;;;1967934;72;21095;-69
2022/09/02 10:58:23;;;;;;;5.05;4.17;;;29.50;54.60;;;;;;1968384;72;21529;-69
2022/09/02 11:00:55;;;;;;;8.43;5.75;;;29.50;54.70;;;;;;1924645;73;21020;-69
2022/09/02 11:03:30;;;;;;;6.97;5.25;;;29.50;54.80;;;;;;1968500;73;21004;-72
2022/09/02 11:06:14;;;;;;;5.08;3.52;;;29.50;55.10;;;;;;1968251;73;21100;-67
2022/09/02 11:08:52;;;;;;;6.17;4.33;;;29.60;54.50;;;;;;1968068;71;21038;-68
2022/09/02 11:11:46;;;;;;;5.10;3.70;;;29.70;54.30;;;;;;1967383;72;21101;-68
2022/09/02 11:14:37;;;;;;;4.87;3.87;;;29.80;54.60;;;;;;1943812;73;21074;-70
2022/09/02 11:17:09;;;;;;;16.23;5.53;;;29.90;53.90;;;;;;1966672;72;21040;-67
2022/09/02 11:19:41;;;;;;;6.50;4.62;;;29.90;53.90;;;;;;1967553;72;21098;-67
2022/09/02 11:22:31;;;;;;;5.17;4.08;;;29.90;54.20;;;;;;1969608;72;21102;-68
2022/09/02 11:25:07;;;;;;;6.20;4.10;;;29.90;53.10;;;;;;1971819;73;21157;-70
2022/09/02 11:27:54;;;;;;;8.85;4.20;;;29.80;53.00;;;;;;1971582;72;21478;-71
2022/09/02 11:30:26;;;;;;;6.85;4.05;;;29.80;53.30;;;;;;1946361;73;21048;-68
2022/09/02 11:33:03;;;;;;;5.25;3.77;;;29.70;53.40;;;;;;1971736;72;21055;-73
2022/09/02 11:35:38;;;;;;;5.78;4.35;;;29.70;53.30;;;;;;1971538;72;21067;-73
2022/09/02 11:38:18;;;;;;;7.28;4.20;;;29.70;53.70;;;;;;1971875;72;21004;-68
2022/09/02 11:41:00;;;;;;;5.83;4.10;;;29.70;53.90;;;;;;1970073;72;21486;-69
2022/09/02 11:43:34;;;;;;;4.60;4.20;;;29.80;54.10;;;;;;1969048;72;20996;-72
2022/09/02 11:46:31;;;;;;;6.67;4.25;;;29.90;53.50;;;;;;1971719;73;21131;-66
2022/09/02 11:49:33;;;;;;;10.88;4.45;;;29.90;53.20;;;;;;1927244;74;21004;-71
2022/09/02 11:52:22;;;;;;;4.53;3.55;;;29.80;53.00;;;;;;1927293;73;21099;-66
2022/09/02 11:55:05;;;;;;;6.60;3.83;;;29.80;52.70;;;;;;1927378;73;21071;-69
2022/09/02 11:57:39;;;;;;;7.37;3.83;;;29.80;52.90;;;;;;1927652;73;21040;-76
2022/09/02 12:00:09;;;;;;;5.55;4.08;;;29.80;53.30;;;;;;1927051;73;21075;-70
2022/09/02 12:02:50;;;;;;;4.17;3.12;;;29.80;52.60;;;;;;1927191;74;21086;-69
2022/09/02 12:05:32;;;;;;;5.08;4.55;;;29.80;52.30;;;;;;1927301;74;21032;-74
2022/09/02 12:08:03;;;;;;;4.78;3.80;;;29.80;52.20;;;;;;1927238;73;21454;-72
2022/09/02 12:10:46;;;;;;;4.42;3.58;;;29.80;52.90;;;;;;1926976;73;21109;-68
2022/09/02 12:13:39;;;;;;;8.50;4.08;;;29.80;52.00;;;;;;1927147;73;21079;-68
2022/09/02 12:16:20;;;;;;;4.97;3.80;;;29.90;52.00;;;;;;1927345;74;21141;-66
2022/09/02 12:18:57;;;;;;;4.50;3.40;;;29.90;51.50;;;;;;1926883;73;21153;-68
2022/09/02 12:21:30;;;;;;;10.50;3.55;;;29.90;51.30;;;;;;1927175;74;21048;-67
2022/09/02 12:24:01;;;;;;;7.10;3.85;;;29.90;51.20;;;;;;1927214;74;21020;-67
2022/09/02 12:26:42;;;;;;;10.25;3.60;;;29.90;51.30;;;;;;1927138;73;21084;-65
2022/09/02 12:29:14;;;;;;;8.35;3.80;;;29.90;51.40;;;;;;1927309;74;21110;-69
2022/09/02 12:31:45;;;;;;;5.78;3.37;;;29.90;51.30;;;;;;1927389;73;21144;-71
2022/09/02 12:34:29;;;;;;;7.53;3.75;;;29.90;51.00;;;;;;1927034;74;21090;-68
2022/09/02 12:37:01;;;;;;;4.47;3.22;;;29.90;50.80;;;;;;1927525;73;21044;-64
2022/09/02 12:39:34;;;;;;;6.08;4.17;;;30.00;50.90;;;;;;1927233;73;21513;-62
2022/09/02 12:42:11;;;;;;;5.15;3.62;;;30.00;51.00;;;;;;1926690;74;21016;-62
2022/09/02 12:44:50;;;;;;;22.98;5.45;;;30.00;50.50;;;;;;1927059;73;21486;-66
2022/09/02 12:47:43;;;;;;;5.15;2.95;;;29.90;50.40;;;;;;1927126;73;21557;-66
2022/09/02 12:50:21;;;;;;;4.15;3.10;;;29.90;50.40;;;;;;1928079;74;21129;-66
2022/09/02 12:52:53;;;;;;;5.35;3.72;;;29.90;50.50;;;;;;1928319;74;21098;-63
2022/09/02 12:55:31;;;;;;;7.10;3.35;;;29.90;50.10;;;;;;1927952;74;21027;-67
2022/09/02 12:58:16;;;;;;;4.25;3.05;;;29.90;49.90;;;;;;1928313;72;21114;-64
2022/09/02 13:00:51;;;;;;;6.35;3.33;;;29.80;50.00;;;;;;1927286;74;21143;-66
2022/09/02 13:03:40;;;;;;;4.87;3.42;;;29.80;50.00;;;;;;1926055;74;21097;-67
2022/09/02 13:06:15;;;;;;;5.70;4.33;;;29.70;50.70;;;;;;1925950;74;21018;-64
2022/09/02 13:08:56;;;;;;;5.75;3.45;;;29.80;50.70;;;;;;1900179;74;21464;-64
2022/09/02 13:11:46;;;;;;;6.47;3.80;;;29.80;49.90;;;;;;1926007;74;21053;-62
2022/09/02 13:14:39;;;;;;;8.15;3.77;;;29.80;50.10;;;;;;1926579;74;21049;-66